Terminal Aerodrome Forecast
Issued by NWS

Home | Current Version | Previous Version | Text Only | Print | Product List | Glossary On
Versions: 1 2 3 4 5 6 7 8 9 10 11
000
FTUS46 KHNX 301720
TAFVIS
TAF
KVIS 301720Z 3018/3118 15006KT P6SM SCT150
     FM302300 32014G20KT P6SM SKC
     FM310200 32007KT P6SM SKC
     FM311100 13005KT P6SM SKC=

USA.gov is the U.S. government's official web portal to all federal, state and local government web resources and services.